createdAt,value
2023-04-18T00:00:43.564Z,8.67
2023-04-18T00:03:10.523Z,8.40
2023-04-18T00:05:37.830Z,10.73
2023-04-18T00:08:05.415Z,8.68
2023-04-18T00:10:33.083Z,9.27
2023-04-18T00:13:00.392Z,12.33
2023-04-18T00:15:29.133Z,9.57
2023-04-18T00:18:00.690Z,9.13
2023-04-18T00:20:27.515Z,10.32
2023-04-18T00:22:54.933Z,8.10
2023-04-18T00:25:21.850Z,9.00
2023-04-18T00:27:48.593Z,9.57
2023-04-18T00:30:15.442Z,9.43
2023-04-18T00:32:42.237Z,8.88
2023-04-18T00:35:09.006Z,9.38
2023-04-18T00:37:35.793Z,9.20
2023-04-18T00:40:02.540Z,9.02
2023-04-18T00:42:29.374Z,9.38
2023-04-18T00:44:56.245Z,9.10
2023-04-18T00:47:23.167Z,9.40
2023-04-18T00:49:50.099Z,8.55
2023-04-18T00:52:18.698Z,9.50
2023-04-18T00:54:47.233Z,9.43
2023-04-18T00:57:14.293Z,8.48
2023-04-18T00:59:41.635Z,9.18
2023-04-18T01:02:08.520Z,8.40
2023-04-18T01:04:35.340Z,9.53
2023-04-18T01:07:03.180Z,8.63
2023-04-18T01:09:30.605Z,9.85
2023-04-18T01:11:57.333Z,8.60
2023-04-18T01:14:24.142Z,9.68
2023-04-18T01:16:50.933Z,9.65
2023-04-18T01:19:19.374Z,9.85
2023-04-18T01:21:46.157Z,9.60
2023-04-18T01:24:15.622Z,9.48
2023-04-18T01:26:44.878Z,9.80
2023-04-18T01:29:11.903Z,8.88
2023-04-18T01:31:39.973Z,9.40
2023-04-18T01:34:07.951Z,8.90
2023-04-18T01:36:37.646Z,9.43
2023-04-18T01:39:04.528Z,9.25
2023-04-18T01:41:32.709Z,8.25
2023-04-18T01:44:00.459Z,8.98
2023-04-18T01:46:27.869Z,8.73
2023-04-18T01:48:55.554Z,8.85
2023-04-18T01:51:22.497Z,8.73
2023-04-18T01:53:49.542Z,10.13
2023-04-18T01:56:16.426Z,8.07
2023-04-18T01:58:43.197Z,8.93
2023-04-18T02:01:10.065Z,8.45
2023-04-18T02:03:38.248Z,8.73
2023-04-18T02:06:05.686Z,8.88
2023-04-18T02:08:35.455Z,9.45
2023-04-18T02:11:05.239Z,9.15
2023-04-18T02:13:32.229Z,7.95
2023-04-18T02:15:59.378Z,9.38
2023-04-18T02:18:26.744Z,7.97
2023-04-18T02:20:53.600Z,8.70
2023-04-18T02:23:22.084Z,8.63
2023-04-18T02:25:48.886Z,7.87
2023-04-18T02:28:17.422Z,8.82
2023-04-18T02:30:44.240Z,6.97
2023-04-18T02:33:10.988Z,7.38
2023-04-18T02:35:37.942Z,7.75
2023-04-18T02:38:04.653Z,7.57
2023-04-18T02:40:31.449Z,7.72
2023-04-18T02:42:59.529Z,8.00
2023-04-18T02:45:26.314Z,8.35
2023-04-18T02:47:56.011Z,8.77
2023-04-18T02:50:24.821Z,7.45
2023-04-18T02:52:53.359Z,8.70
2023-04-18T02:55:22.241Z,7.07
2023-04-18T02:57:49.011Z,7.45
2023-04-18T03:00:41.687Z,7.80
2023-04-18T03:03:37.689Z,6.75
2023-04-18T03:06:19.304Z,6.30
2023-04-18T03:08:46.551Z,7.30
2023-04-18T03:11:13.781Z,7.75
2023-04-18T03:13:40.857Z,7.43
2023-04-18T03:16:07.840Z,6.40
2023-04-18T03:18:35.158Z,6.40
2023-04-18T03:21:02.521Z,7.15
2023-04-18T03:23:31.419Z,6.10
2023-04-18T03:26:01.089Z,7.97
2023-04-18T03:28:31.116Z,6.20
2023-04-18T03:30:58.668Z,6.50
2023-04-18T03:33:25.631Z,7.68
2023-04-18T03:36:01.108Z,6.35
2023-04-18T03:38:27.998Z,6.90
2023-04-18T03:40:54.827Z,8.00
2023-04-18T03:43:29.864Z,7.15
2023-04-18T03:45:56.867Z,7.20
2023-04-18T03:48:23.911Z,6.25
2023-04-18T03:50:51.009Z,6.63
2023-04-18T03:53:17.913Z,7.40
2023-04-18T03:55:44.622Z,6.25
2023-04-18T03:58:14.108Z,6.15
2023-04-18T04:00:41.180Z,7.32
2023-04-18T04:03:10.655Z,6.32
2023-04-18T04:05:37.829Z,6.67
2023-04-18T04:08:05.001Z,5.30
2023-04-18T04:10:31.684Z,6.47
2023-04-18T04:12:58.338Z,6.57
2023-04-18T04:15:25.385Z,6.63
2023-04-18T04:18:07.639Z,6.05
2023-04-18T04:20:37.762Z,6.93
2023-04-18T04:23:10.830Z,6.60
2023-04-18T04:25:39.294Z,6.40
2023-04-18T04:28:14.679Z,5.85
2023-04-18T04:30:51.649Z,5.88
2023-04-18T04:33:19.581Z,5.23
2023-04-18T04:35:47.664Z,5.80
2023-04-18T04:38:15.320Z,6.22
2023-04-18T04:40:46.616Z,6.05
2023-04-18T04:43:15.307Z,4.90
2023-04-18T04:45:44.542Z,5.53
2023-04-18T04:48:12.137Z,5.80
2023-04-18T04:50:42.009Z,5.45
2023-04-18T04:53:11.761Z,6.80
2023-04-18T04:55:38.980Z,6.40
2023-04-18T04:58:05.797Z,5.55
2023-04-18T05:01:01.805Z,5.70
2023-04-18T05:03:28.922Z,6.85
2023-04-18T05:05:57.068Z,5.13
2023-04-18T05:08:23.900Z,5.68
2023-04-18T05:10:50.986Z,6.55
2023-04-18T05:13:17.738Z,6.35
2023-04-18T05:15:44.552Z,6.28
2023-04-18T05:18:11.486Z,6.53
2023-04-18T05:20:38.233Z,6.55
2023-04-18T05:23:04.945Z,6.53
2023-04-18T05:25:32.194Z,6.70
2023-04-18T05:28:01.130Z,5.90
2023-04-18T05:30:27.897Z,6.20
2023-04-18T05:32:54.695Z,7.03
2023-04-18T05:35:21.510Z,6.82
2023-04-18T05:37:48.329Z,6.35
2023-04-18T05:40:15.024Z,6.10
2023-04-18T05:42:41.786Z,6.22
2023-04-18T05:45:09.219Z,9.40
2023-04-18T05:47:36.048Z,5.88
2023-04-18T05:50:02.881Z,8.07
2023-04-18T05:52:29.672Z,7.78
2023-04-18T05:54:56.516Z,6.88
2023-04-18T05:57:23.258Z,6.57
2023-04-18T05:59:50.188Z,6.93
2023-04-18T06:02:17.082Z,8.32
2023-04-18T06:04:44.034Z,6.47
2023-04-18T06:07:11.208Z,5.50
2023-04-18T06:09:38.951Z,7.45
2023-04-18T06:12:05.873Z,5.90
2023-04-18T06:14:32.660Z,6.83
2023-04-18T06:16:59.655Z,7.47
2023-04-18T06:19:26.465Z,6.78
2023-04-18T06:21:53.575Z,7.87
2023-04-18T06:24:20.772Z,5.85
2023-04-18T06:26:47.512Z,6.03
2023-04-18T06:29:14.361Z,8.10
2023-04-18T06:31:42.046Z,4.93
2023-04-18T06:34:09.166Z,5.25
2023-04-18T06:36:36.259Z,4.75
2023-04-18T06:39:03.369Z,6.75
2023-04-18T06:41:31.043Z,6.23
2023-04-18T06:44:02.616Z,7.10
2023-04-18T06:46:30.961Z,8.63
2023-04-18T06:48:57.873Z,11.53
2023-04-18T06:51:24.877Z,10.43
2023-04-18T06:53:52.724Z,6.95
2023-04-18T06:56:20.829Z,8.93
2023-04-18T06:58:48.342Z,9.52
2023-04-18T07:01:15.359Z,7.88
2023-04-18T07:03:42.282Z,8.05
2023-04-18T07:06:10.486Z,9.30
2023-04-18T07:08:37.902Z,6.50
2023-04-18T07:11:06.557Z,6.72
2023-04-18T07:13:33.257Z,5.38
2023-04-18T07:16:01.234Z,7.13
2023-04-18T07:18:37.469Z,6.35
2023-04-18T07:21:08.989Z,6.70
2023-04-18T07:23:36.377Z,6.43
2023-04-18T07:26:05.186Z,6.05
2023-04-18T07:28:32.948Z,8.30
2023-04-18T07:31:01.045Z,7.35
2023-04-18T07:33:31.452Z,5.53
2023-04-18T07:35:58.327Z,6.57
2023-04-18T07:38:25.165Z,6.30
2023-04-18T07:40:59.296Z,9.13
2023-04-18T07:43:26.806Z,7.40
2023-04-18T07:45:54.096Z,8.17
2023-04-18T07:48:25.350Z,6.72
2023-04-18T07:50:52.480Z,6.45
2023-04-18T07:53:19.810Z,4.82
2023-04-18T07:55:46.802Z,4.23
2023-04-18T07:58:14.636Z,6.70
2023-04-18T08:00:44.921Z,7.18
2023-04-18T08:03:12.536Z,7.40
2023-04-18T08:05:40.342Z,4.45
2023-04-18T08:08:08.574Z,6.88
2023-04-18T08:10:35.616Z,7.70
2023-04-18T08:13:02.758Z,5.50
2023-04-18T08:15:32.163Z,6.20
2023-04-18T08:18:00.208Z,6.13
2023-04-18T08:20:30.288Z,7.38
2023-04-18T08:23:07.431Z,7.67
2023-04-18T08:25:36.303Z,6.87
2023-04-18T08:28:04.003Z,5.95
2023-04-18T08:30:31.454Z,7.20
2023-04-18T08:33:00.458Z,7.00
2023-04-18T08:35:27.255Z,9.65
2023-04-18T08:37:53.974Z,7.65
2023-04-18T08:40:21.043Z,8.73
2023-04-18T08:42:48.877Z,7.30
2023-04-18T08:45:15.764Z,5.63
2023-04-18T08:47:44.540Z,4.68
2023-04-18T08:50:12.579Z,6.78
2023-04-18T08:52:41.353Z,5.93
2023-04-18T08:55:09.337Z,5.32
2023-04-18T08:57:37.161Z,9.52
2023-04-18T09:00:10.342Z,6.30
2023-04-18T09:02:45.019Z,7.90
2023-04-18T09:05:19.403Z,5.00
2023-04-18T09:07:47.588Z,4.70
2023-04-18T09:10:34.783Z,6.70
2023-04-18T09:13:05.470Z,5.15
2023-04-18T09:15:32.338Z,7.40
2023-04-18T09:18:02.746Z,5.22
2023-04-18T09:20:42.114Z,4.75
2023-04-18T09:23:11.558Z,5.13
2023-04-18T09:25:46.738Z,5.90
2023-04-18T09:28:30.962Z,4.38
2023-04-18T09:31:15.282Z,6.07
2023-04-18T09:33:54.310Z,3.55
2023-04-18T09:36:27.621Z,6.38
2023-04-18T09:38:56.680Z,3.73
2023-04-18T09:41:24.084Z,5.38
2023-04-18T09:44:11.641Z,4.75
2023-04-18T09:46:41.146Z,3.83
2023-04-18T09:49:10.818Z,4.30
2023-04-18T09:51:40.311Z,4.35
2023-04-18T09:54:08.646Z,5.20
2023-04-18T09:56:37.260Z,4.18
2023-04-18T09:59:09.010Z,3.92
2023-04-18T10:01:36.545Z,3.85
2023-04-18T10:04:06.642Z,4.35
2023-04-18T10:06:34.904Z,4.15
2023-04-18T10:09:04.609Z,5.23
2023-04-18T10:11:32.107Z,3.97
2023-04-18T10:14:03.194Z,4.10
2023-04-18T10:16:32.117Z,3.90
2023-04-18T10:19:27.304Z,4.88
2023-04-18T10:21:59.221Z,3.28
2023-04-18T10:24:52.883Z,4.38
2023-04-18T10:27:47.285Z,3.70
2023-04-18T10:30:17.131Z,3.22
2023-04-18T10:32:46.404Z,3.20
2023-04-18T10:35:13.312Z,3.10
2023-04-18T10:37:58.818Z,4.22
2023-04-18T10:40:33.846Z,3.42
2023-04-18T10:43:01.144Z,4.63
2023-04-18T10:45:30.952Z,4.72
2023-04-18T10:48:29.766Z,6.10
2023-04-18T10:51:18.521Z,5.60
2023-04-18T10:53:57.554Z,7.75
2023-04-18T10:56:26.067Z,8.00
2023-04-18T10:58:53.752Z,11.43
2023-04-18T11:01:32.518Z,10.88
2023-04-18T11:04:00.733Z,14.02
2023-04-18T11:06:28.625Z,16.15
2023-04-18T11:09:14.387Z,17.42
2023-04-18T11:11:42.295Z,13.70
2023-04-18T11:14:09.276Z,16.67
2023-04-18T11:16:36.755Z,16.02
2023-04-18T11:19:21.228Z,19.13
2023-04-18T11:21:47.970Z,17.40
2023-04-18T11:24:22.946Z,20.58
2023-04-18T11:26:49.832Z,22.67
2023-04-18T11:29:18.376Z,25.63
2023-04-18T11:31:58.590Z,32.25
2023-04-18T11:34:30.575Z,28.48
2023-04-18T11:36:57.726Z,29.77
2023-04-18T11:39:24.902Z,31.73
2023-04-18T11:41:51.795Z,34.70
2023-04-18T11:44:24.078Z,34.10
2023-04-18T11:46:51.404Z,36.67
2023-04-18T11:49:31.277Z,30.15
2023-04-18T11:51:59.451Z,32.03
2023-04-18T11:54:43.869Z,34.78
2023-04-18T11:57:30.252Z,30.83
2023-04-18T11:59:58.964Z,30.08
2023-04-18T12:02:43.865Z,31.35
2023-04-18T12:05:12.061Z,28.05
2023-04-18T12:07:44.465Z,28.70
2023-04-18T12:10:21.146Z,27.38
2023-04-18T12:12:50.147Z,27.30
2023-04-18T12:15:17.735Z,27.53
2023-04-18T12:17:48.342Z,25.67
2023-04-18T12:20:16.059Z,25.65
2023-04-18T12:22:47.298Z,22.85
2023-04-18T12:25:27.097Z,24.42
2023-04-18T12:27:59.835Z,20.98
2023-04-18T12:30:36.856Z,22.63
2023-04-18T12:33:04.933Z,21.88
2023-04-18T12:35:32.107Z,21.48
2023-04-18T12:38:01.819Z,19.58
2023-04-18T12:40:30.042Z,21.80
2023-04-18T12:42:56.836Z,18.45
2023-04-18T12:45:24.392Z,18.85
2023-04-18T12:47:52.614Z,17.73
2023-04-18T12:50:22.724Z,20.15
2023-04-18T12:52:53.165Z,18.10
2023-04-18T12:55:20.735Z,18.08
2023-04-18T12:57:47.638Z,16.90
2023-04-18T13:00:14.749Z,16.25
2023-04-18T13:02:43.533Z,17.95
2023-04-18T13:05:15.279Z,16.42
2023-04-18T13:07:42.968Z,17.83
2023-04-18T13:10:11.953Z,18.40
2023-04-18T13:12:42.460Z,20.00
2023-04-18T13:15:10.424Z,15.77
2023-04-18T13:17:38.170Z,15.95
2023-04-18T13:20:15.417Z,15.60
2023-04-18T13:22:43.917Z,14.50
2023-04-18T13:25:11.370Z,14.38
2023-04-18T13:27:41.553Z,14.15
2023-04-18T13:30:10.947Z,13.07
2023-04-18T13:32:39.160Z,14.70
2023-04-18T13:35:09.025Z,14.48
2023-04-18T13:37:37.789Z,14.73
2023-04-18T13:40:06.343Z,15.07
2023-04-18T13:42:38.646Z,15.03
2023-04-18T13:45:05.975Z,103.80
2023-04-18T13:47:32.849Z,15.73
2023-04-18T13:49:59.769Z,12.83
2023-04-18T13:52:27.164Z,10.73
2023-04-18T13:54:54.429Z,9.38
2023-04-18T13:57:23.016Z,11.23
2023-04-18T13:59:50.237Z,10.85
2023-04-18T14:02:17.140Z,11.95
2023-04-18T14:04:44.052Z,11.07
2023-04-18T14:07:10.822Z,10.50
2023-04-18T14:09:37.686Z,9.80
2023-04-18T14:12:05.208Z,10.52
2023-04-18T14:14:31.984Z,8.35
2023-04-18T14:16:58.669Z,11.23
2023-04-18T14:19:26.380Z,9.73
2023-04-18T14:21:53.146Z,8.77
2023-04-18T14:24:19.971Z,8.57
2023-04-18T14:26:47.828Z,9.02
2023-04-18T14:29:14.896Z,10.18
2023-04-18T14:31:42.163Z,9.52
2023-04-18T14:34:09.531Z,8.90
2023-04-18T14:36:36.503Z,7.72
2023-04-18T14:39:03.565Z,7.28
2023-04-18T14:41:30.471Z,7.22
2023-04-18T14:43:57.691Z,8.30
2023-04-18T14:46:25.280Z,8.15
2023-04-18T14:48:52.133Z,7.63
2023-04-18T14:51:18.922Z,7.55
2023-04-18T14:53:46.167Z,6.75
2023-04-18T14:56:13.508Z,8.45
2023-04-18T14:58:40.302Z,6.57
2023-04-18T15:01:07.608Z,6.82
2023-04-18T15:03:35.165Z,7.78
2023-04-18T15:06:02.046Z,6.88
2023-04-18T15:08:30.718Z,6.55
2023-04-18T15:10:59.136Z,7.20
2023-04-18T15:13:25.899Z,5.55
2023-04-18T15:15:53.873Z,6.60
2023-04-18T15:18:21.238Z,5.85
2023-04-18T15:20:48.015Z,5.85
2023-04-18T15:23:15.098Z,5.65
2023-04-18T15:25:43.546Z,7.83
2023-04-18T15:28:10.598Z,7.10
2023-04-18T15:30:39.109Z,7.57
2023-04-18T15:33:05.957Z,7.10
2023-04-18T15:35:32.786Z,5.38
2023-04-18T15:37:59.517Z,7.10
2023-04-18T15:40:26.896Z,6.15
2023-04-18T15:42:54.429Z,6.47
2023-04-18T15:45:21.795Z,6.13
2023-04-18T15:47:48.710Z,4.97
2023-04-18T15:50:16.312Z,6.18
2023-04-18T15:52:44.038Z,5.30
2023-04-18T15:55:13.085Z,7.68
2023-04-18T15:57:41.380Z,5.27
2023-04-18T16:00:17.183Z,7.05
2023-04-18T16:02:45.254Z,6.80
2023-04-18T16:05:13.312Z,5.75
2023-04-18T16:07:41.308Z,7.03
2023-04-18T16:10:10.100Z,6.18
2023-04-18T16:12:37.728Z,6.13
2023-04-18T16:15:09.398Z,6.25
2023-04-18T16:17:39.530Z,5.20
2023-04-18T16:20:08.421Z,6.53
2023-04-18T16:22:35.604Z,5.43
2023-04-18T16:25:02.909Z,4.57
2023-04-18T16:27:29.746Z,5.20
2023-04-18T16:29:56.506Z,4.70
2023-04-18T16:32:23.266Z,4.60
2023-04-18T16:34:49.994Z,4.60
2023-04-18T16:37:16.761Z,3.93
2023-04-18T16:39:43.445Z,5.05
2023-04-18T16:42:10.277Z,4.57
2023-04-18T16:44:37.134Z,4.30
2023-04-18T16:47:05.040Z,4.80
2023-04-18T16:49:32.131Z,4.78
2023-04-18T16:51:58.888Z,3.67
2023-04-18T16:54:25.739Z,4.25
2023-04-18T16:56:52.516Z,4.68
2023-04-18T16:59:19.327Z,4.10
2023-04-18T17:01:46.097Z,4.50
2023-04-18T17:04:13.145Z,3.30
2023-04-18T17:06:42.057Z,3.67
2023-04-18T17:09:08.988Z,4.03
2023-04-18T17:11:39.611Z,4.07
2023-04-18T17:14:08.451Z,3.67
2023-04-18T17:16:38.295Z,4.38
2023-04-18T17:19:05.383Z,4.10
2023-04-18T17:21:32.502Z,4.18
2023-04-18T17:24:03.304Z,4.00
2023-04-18T17:26:30.811Z,3.40
2023-04-18T17:28:57.522Z,4.00
2023-04-18T17:31:24.335Z,4.80
2023-04-18T17:33:51.034Z,3.50
2023-04-18T17:36:17.777Z,3.67
2023-04-18T17:38:48.857Z,3.20
2023-04-18T17:41:17.499Z,3.60
2023-04-18T17:43:45.320Z,4.67
2023-04-18T17:46:13.066Z,6.13
2023-04-18T17:48:39.974Z,3.53
2023-04-18T17:51:06.726Z,4.18
2023-04-18T17:53:33.554Z,5.13
2023-04-18T17:56:00.432Z,3.40
2023-04-18T17:58:27.878Z,4.88
2023-04-18T18:00:54.643Z,3.72
2023-04-18T18:03:21.586Z,6.55
2023-04-18T18:05:49.658Z,3.63
2023-04-18T18:08:17.085Z,4.32
2023-04-18T18:10:46.560Z,4.30
2023-04-18T18:13:13.746Z,4.50
2023-04-18T18:15:40.681Z,3.60
2023-04-18T18:18:07.446Z,3.97
2023-04-18T18:20:34.326Z,3.53
2023-04-18T18:23:01.632Z,4.13
2023-04-18T18:25:28.602Z,4.63
2023-04-18T18:27:55.362Z,4.80
2023-04-18T18:30:22.489Z,3.45
2023-04-18T18:32:49.494Z,3.67
2023-04-18T18:35:16.319Z,3.50
2023-04-18T18:37:43.093Z,4.22
2023-04-18T18:40:10.111Z,3.63
2023-04-18T18:42:36.878Z,3.07
2023-04-18T18:45:04.432Z,3.53
2023-04-18T18:47:31.430Z,3.50
2023-04-18T18:49:58.185Z,3.70
2023-04-18T18:52:25.143Z,4.13
2023-04-18T18:54:52.750Z,3.40
2023-04-18T18:57:19.528Z,3.28
2023-04-18T18:59:46.739Z,3.50
2023-04-18T19:02:13.575Z,3.80
2023-04-18T19:04:40.438Z,3.88
2023-04-18T19:07:07.312Z,3.88
2023-04-18T19:09:34.231Z,3.50
2023-04-18T19:12:01.107Z,3.70
2023-04-18T19:14:27.904Z,4.22
2023-04-18T19:16:55.815Z,3.67
2023-04-18T19:19:22.589Z,3.63
2023-04-18T19:21:49.976Z,4.05
2023-04-18T19:24:17.748Z,4.07
2023-04-18T19:26:44.598Z,4.03
2023-04-18T19:29:14.099Z,4.55
2023-04-18T19:31:43.397Z,3.93
2023-04-18T19:34:10.776Z,4.10
2023-04-18T19:36:38.183Z,4.15
2023-04-18T19:39:04.910Z,4.00
2023-04-18T19:41:31.591Z,3.90
2023-04-18T19:43:58.487Z,3.70
2023-04-18T19:46:26.045Z,4.47
2023-04-18T19:48:52.774Z,4.60
2023-04-18T19:51:19.528Z,4.25
2023-04-18T19:53:46.272Z,4.18
2023-04-18T19:56:14.778Z,4.20
2023-04-18T19:58:46.545Z,4.57
2023-04-18T20:01:14.317Z,4.30
2023-04-18T20:03:41.468Z,4.40
2023-04-18T20:06:09.032Z,4.32
2023-04-18T20:08:37.938Z,3.93
2023-04-18T20:11:07.540Z,4.32
2023-04-18T20:13:36.514Z,4.20
2023-04-18T20:16:07.714Z,4.27
2023-04-18T20:18:37.533Z,4.63
2023-04-18T20:21:06.832Z,4.33
2023-04-18T20:23:34.380Z,4.55
2023-04-18T20:26:01.308Z,5.15
2023-04-18T20:28:28.024Z,4.50
2023-04-18T20:30:55.450Z,4.50
2023-04-18T20:33:22.294Z,4.43
2023-04-18T20:35:51.123Z,4.57
2023-04-18T20:38:20.004Z,4.40
2023-04-18T20:40:47.134Z,4.47
2023-04-18T20:43:17.270Z,4.10
2023-04-18T20:45:44.184Z,4.30
2023-04-18T20:48:11.545Z,4.37
2023-04-18T20:50:40.025Z,4.75
2023-04-18T20:53:06.773Z,4.82
2023-04-18T20:55:33.529Z,4.67
2023-04-18T20:58:00.265Z,5.00
2023-04-18T21:00:27.948Z,4.65
2023-04-18T21:02:54.795Z,4.35
2023-04-18T21:05:21.744Z,4.60
2023-04-18T21:07:49.219Z,4.50
2023-04-18T21:10:16.055Z,4.60
2023-04-18T21:12:42.759Z,4.30
2023-04-18T21:15:09.898Z,5.17
2023-04-18T21:17:36.640Z,4.40
2023-04-18T21:20:03.503Z,4.57
2023-04-18T21:22:30.361Z,4.88
2023-04-18T21:24:57.006Z,5.10
2023-04-18T21:27:23.720Z,4.47
2023-04-18T21:29:50.468Z,4.50
2023-04-18T21:32:17.250Z,4.60
2023-04-18T21:34:43.888Z,4.40
2023-04-18T21:37:10.553Z,4.28
2023-04-18T21:39:38.142Z,4.38
2023-04-18T21:42:04.925Z,4.30
2023-04-18T21:44:31.756Z,4.47
2023-04-18T21:46:58.442Z,4.38
2023-04-18T21:49:25.575Z,4.43
2023-04-18T21:51:52.350Z,4.70
2023-04-18T21:54:19.097Z,4.38
2023-04-18T21:56:45.829Z,4.32
2023-04-18T21:59:12.563Z,4.43
2023-04-18T22:01:39.418Z,4.70
2023-04-18T22:04:06.511Z,4.60
2023-04-18T22:06:33.596Z,4.60
2023-04-18T22:09:01.059Z,4.82
2023-04-18T22:11:28.494Z,4.85
2023-04-18T22:13:57.910Z,4.55
2023-04-18T22:16:24.773Z,4.70
2023-04-18T22:18:51.875Z,4.72
2023-04-18T22:21:18.684Z,4.50
2023-04-18T22:23:45.766Z,4.45
2023-04-18T22:26:12.735Z,4.50
2023-04-18T22:28:39.546Z,4.30
2023-04-18T22:31:06.382Z,4.78
2023-04-18T22:33:33.179Z,4.65
2023-04-18T22:36:00.406Z,4.63
2023-04-18T22:38:27.147Z,4.40
2023-04-18T22:40:53.882Z,4.45
2023-04-18T22:43:23.556Z,6.60
2023-04-18T22:45:51.078Z,4.90
2023-04-18T22:48:18.443Z,4.43
2023-04-18T22:50:46.120Z,4.40
2023-04-18T22:53:14.921Z,4.43
2023-04-18T22:55:43.784Z,4.63
2023-04-18T22:58:11.255Z,4.20
2023-04-18T23:00:38.082Z,4.35
2023-04-18T23:03:05.043Z,4.22
2023-04-18T23:05:31.990Z,4.22
2023-04-18T23:08:00.331Z,4.22
2023-04-18T23:10:27.648Z,4.18
2023-04-18T23:12:54.432Z,4.43
2023-04-18T23:15:22.704Z,4.00
2023-04-18T23:17:52.393Z,4.43
2023-04-18T23:20:19.949Z,4.20
2023-04-18T23:22:49.228Z,4.53
2023-04-18T23:25:16.319Z,4.18
2023-04-18T23:27:43.222Z,4.00
2023-04-18T23:30:10.525Z,4.28
2023-04-18T23:32:37.299Z,4.43
2023-04-18T23:35:05.901Z,4.20
2023-04-18T23:37:32.826Z,3.95
2023-04-18T23:40:00.255Z,4.28
2023-04-18T23:42:27.255Z,4.10
2023-04-18T23:44:54.529Z,3.90
2023-04-18T23:47:21.788Z,3.87
2023-04-18T23:49:48.596Z,4.30
2023-04-18T23:52:15.560Z,3.92
2023-04-18T23:54:42.340Z,4.00
2023-04-18T23:57:09.275Z,4.00
2023-04-18T23:59:36.065Z,3.80
